Michigan City, IN

6:18 PM CST on February 20, 2017 (GMT -0600)
The Beacher, Franklin@10th | | Change Station
Active Advisory: Small Craft Advisory

Elev 623 ft 41.71 °N, 86.90 °W | Updated 8 seconds ago

Clear
Clear
62.1 °F
Feels Like 62.1 °F
N
3.0
Wind Variable Wind from South
Gusts 15.0 mph

Today
High -- | Low -- °F
--% Chance of Precip.
Yesterday
High -- | Low -- °F
Precip. -- in
Pressure 30.03 in
Visibility 10.0 miles
Clouds Clear
Dew Point 45 °F
Humidity 54%
Rainfall 0.00 in
Snow Depth Not available.
6:35 AM 5:27 PM
Waning Crescent, 30% visible
METAR KMGC 202355Z AUTO 14006KT 10SM CLR 16/04 A3003 RMK AO2
Pressure 30.03 in
Visibility 10.0 miles
Clouds Clear
Dew Point 45 °F
Humidity 54%
Rainfall 0.00 in
Snow Depth Not available.
6:35 AM 5:27 PM
Waning Crescent, 30% visible
METAR KMGC 202355Z AUTO 14006KT 10SM CLR 16/04 A3003 RMK AO2

Get Your Daily Forecast Email!

Thanks for signing up!

Be on the lookout for a verification email in your inbox.

You'll start receiving the daily forecast at 8 AM.

×

10-Day Weather Forecast

Almanac

Astronomy

Feb. 20, 2017 Rise Set
Actual Time
Civil Twilight
Nautical Twilight
Astronomical Twilight
Moon
Length of Visible Light
Length of Day
Tomorrow will be .
, % of the Moon is Illuminated

Today's Extremes

State Highs State Lows

Community

WunderPhotos

Upload Photos

1,962,540 photos uploaded!

WunderBlog® & News

Nearby

Air Quality

  Air Quality AQ Index Pollutant
Not available.

Snow Depth

Station Depth Elevation

Earthquake Activity

City Distance Mag. Time & Date
Minimum magnitude displayed is 2.5.

Coastal Water Temperatures

Place Temperature

Stations

Nearby Weather Stations

Station Location Temp. Windchill Dew Point Humidity Wind Precip. Elev Updated Type
                   

Watches & Warnings

Small Craft Advisory
Issued: 3:53 PM EST Feb. 20, 2017 – National Weather Service

... Small Craft Advisory remains in effect until 4 am EST
Tuesday...

A Small Craft Advisory remains in effect until 4 am EST Tuesday.

* Winds: southeast 10 to 20 knots... veering south this
evening... then southwest 10 to 15 knots overnight. Gusts up to 25
knots.


* Waves: 1 to 4 feet.

Precautionary/preparedness actions...

A Small Craft Advisory means that sustained winds or frequent
gusts of 22 to 33 knots are likely... and/or waves greater than
4 feet are expected. Inexperienced mariners... especially those
operating smaller vessels should avoid navigating in these
conditions.